Airfield :







YOU CAN JOIN US ON...

 
LOGIN :

Register | Disclaimer

   EN    FR    IT 

 









Legend :    VFR   Marginal VFR   IFR   Intensive IFR   Very Intensive IFR
Visi :
Ceiling :
>= 8 km
>= 3000ft
5 to 8 km
1000 to 3000 ft
1500m to 5 km
500 to 1000 ft
800 to 1500m
200 to 500 ft
< 800m
< 200 ft
Symbols :   Thunderstorms  Fog  Heavy snow  Heavy precipitations  Wind > 20 kt






- Airport Elevation : 477 ft
- IATA code : YHZ


CYHZ - Halifax Stanfield Int.

CURRENT METAR :
  • 260300Z 13013G19KT 15SM OVC008 M02/M03 A3023 RMK ST8 SLP248

EXPIRED METARs :
  • 260200Z 13012KT 15SM OVC008 M03/M03 A3028 RMK ST8 SLP263
  • 260100Z 13014G20KT 15SM OVC008 M03/M04 A3028 RMK ST8 SLP264

TAF TAF CYHZ
Valid from the 26 at 03:00 until the 27 at 00:00 UTC


260238Z 2603/2624 13012KT P6SM OVC007
TEMPO 2603/2606 OVC010
FM260600 14012KT P6SM OVC004
PROB40 2606/2614 11/2SM BR OVC003
FM261600 14015G25KT 6SM -RA BR OVC004
FM261800 14015G25KT 2SM RA BR OVC003
FM262300 20012KT 2SM BR OVC003 RMK NXT FCST BY 260600Z



MET'MAP, your aeronautical weather chart ! - Copyright ORBIFLY December 2007 - Disclaimer

ORBIFLY MET'MAP TEAM :

Programming & Development : Alexandra Zaïnal
Concept & original design : Baudouin d'Aumeries
Assistance for programming : Marc-Olivier Méhu
Technical & hardware support : Manuel Goepfert

Contact : metmap@orbifly.com




SOURCES & CREDITS :

   NOAA